createdAt,value
2023-05-01T00:02:14.107Z,24.23
2023-05-01T00:04:40.826Z,23.92
2023-05-01T00:07:07.856Z,26.20
2023-05-01T00:09:34.557Z,25.70
2023-05-01T00:21:46.127Z,27.42
2023-05-01T00:24:12.825Z,29.92
2023-05-01T00:31:30.426Z,32.90
2023-05-01T00:39:25.713Z,33.10
2023-05-01T00:41:52.435Z,33.70
2023-05-01T00:44:19.139Z,34.08
2023-05-01T00:46:45.796Z,32.10
2023-05-01T00:49:12.563Z,31.13
2023-05-01T00:56:55.680Z,32.88
2023-05-01T00:59:22.714Z,31.73
2023-05-01T01:01:50.843Z,32.42
2023-05-01T01:04:17.637Z,30.80
2023-05-01T01:06:53.800Z,28.52
2023-05-01T01:09:29.498Z,29.70
2023-05-01T01:12:11.456Z,31.98
2023-05-01T01:14:38.150Z,31.60
2023-05-01T01:17:09.219Z,29.05
2023-05-01T01:19:55.086Z,31.65
2023-05-01T01:22:24.028Z,28.73
2023-05-01T01:24:53.809Z,28.08
2023-05-01T01:27:23.178Z,28.40
2023-05-01T01:29:49.726Z,26.83
2023-05-01T01:32:34.862Z,27.52
2023-05-01T01:35:03.378Z,26.55
2023-05-01T01:37:38.489Z,27.02
2023-05-01T01:40:10.489Z,26.90
2023-05-01T01:45:29.980Z,24.85
2023-05-01T01:47:57.550Z,26.20
2023-05-01T01:50:26.055Z,24.70
2023-05-01T01:52:54.582Z,22.55
2023-05-01T01:57:48.621Z,23.58
2023-05-01T02:00:16.621Z,23.45
2023-05-01T02:02:48.107Z,22.00
2023-05-01T02:05:16.027Z,21.58
2023-05-01T02:07:43.605Z,20.67
2023-05-01T02:17:32.557Z,17.90
2023-05-01T02:19:59.804Z,17.33
2023-05-01T02:22:27.183Z,15.55
2023-05-01T02:27:35.019Z,15.23
2023-05-01T02:30:01.936Z,14.52
2023-05-01T02:32:28.921Z,14.02
2023-05-01T02:34:55.636Z,13.10
2023-05-01T02:37:22.269Z,12.07
2023-05-01T02:39:49.358Z,11.32
2023-05-01T02:42:16.677Z,10.20
2023-05-01T02:47:16.144Z,10.00
2023-05-01T02:49:44.037Z,9.55
2023-05-01T02:52:11.737Z,10.57
2023-05-01T02:54:39.093Z,10.95
2023-05-01T02:57:05.883Z,10.48
2023-05-01T02:59:32.877Z,10.40
2023-05-01T03:01:59.847Z,11.60
2023-05-01T03:04:27.143Z,9.52
2023-05-01T03:06:54.514Z,10.75
2023-05-01T03:09:22.162Z,8.88
2023-05-01T03:11:48.910Z,9.85
2023-05-01T03:14:15.546Z,9.40
2023-05-01T03:16:42.361Z,9.27
2023-05-01T03:19:09.078Z,9.88
2023-05-01T03:24:02.185Z,9.25
2023-05-01T03:26:28.876Z,9.63
2023-05-01T03:28:55.778Z,10.70
2023-05-01T03:31:22.722Z,9.25
2023-05-01T03:33:50.221Z,9.02
2023-05-01T03:36:17.466Z,9.93
2023-05-01T03:38:47.482Z,9.25
2023-05-01T03:46:05.241Z,9.90
2023-05-01T03:55:49.622Z,10.60
2023-05-01T03:58:16.735Z,10.32
2023-05-01T04:00:43.534Z,9.32
2023-05-01T04:05:38.164Z,9.75
2023-05-01T04:08:05.085Z,10.13
2023-05-01T04:12:57.339Z,9.00
2023-05-01T04:15:24.163Z,9.55
2023-05-01T04:17:51.242Z,8.95
2023-05-01T04:20:19.614Z,9.88
2023-05-01T04:22:46.684Z,9.80
2023-05-01T04:25:13.263Z,8.30
2023-05-01T04:27:40.213Z,9.43
2023-05-01T04:30:07.534Z,8.48
2023-05-01T04:32:35.724Z,8.25
2023-05-01T04:35:04.232Z,9.27
2023-05-01T04:37:30.960Z,8.90
2023-05-01T04:39:57.910Z,8.05
2023-05-01T04:42:30.125Z,8.57
2023-05-01T04:44:57.164Z,7.32
2023-05-01T04:47:23.895Z,8.25
2023-05-01T04:52:16.610Z,7.07
2023-05-01T04:57:23.403Z,7.47
2023-05-01T04:59:50.515Z,7.00
2023-05-01T05:14:43.956Z,6.78
2023-05-01T05:17:12.559Z,6.80
2023-05-01T05:19:39.358Z,6.63
2023-05-01T05:22:06.175Z,5.78
2023-05-01T05:24:40.785Z,5.75
2023-05-01T05:27:08.436Z,5.88
2023-05-01T05:29:35.745Z,5.40
2023-05-01T05:32:02.504Z,5.40
2023-05-01T05:34:29.663Z,6.10
2023-05-01T05:36:56.312Z,5.15
2023-05-01T05:39:25.444Z,4.93
2023-05-01T05:41:54.002Z,5.45
2023-05-01T05:44:21.183Z,5.50
2023-05-01T05:46:48.034Z,5.72
2023-05-01T05:49:22.090Z,5.95
2023-05-01T05:54:14.135Z,5.53
2023-05-01T05:56:41.136Z,5.32
2023-05-01T05:59:08.198Z,5.25
2023-05-01T06:01:37.423Z,5.22
2023-05-01T06:04:04.151Z,6.55
2023-05-01T06:06:34.105Z,5.93
2023-05-01T06:09:02.839Z,6.25
2023-05-01T06:11:29.873Z,6.22
2023-05-01T06:16:23.982Z,5.68
2023-05-01T06:23:42.424Z,5.95
2023-05-01T06:29:07.077Z,6.05
2023-05-01T06:31:34.425Z,5.60
2023-05-01T06:34:01.123Z,5.68
2023-05-01T06:36:32.441Z,5.10
2023-05-01T06:38:59.127Z,6.38
2023-05-01T06:41:26.629Z,5.07
2023-05-01T06:43:53.422Z,5.57
2023-05-01T06:46:20.229Z,5.13
2023-05-01T06:48:46.938Z,5.85
2023-05-01T06:51:55.360Z,4.90
2023-05-01T06:56:55.336Z,4.80
2023-05-01T06:59:22.150Z,3.90
2023-05-01T07:01:48.873Z,4.20
2023-05-01T07:04:15.603Z,4.80
2023-05-01T07:06:42.416Z,4.93
2023-05-01T07:09:09.209Z,4.65
2023-05-01T07:11:36.120Z,4.82
2023-05-01T07:16:28.326Z,4.25
2023-05-01T07:18:55.042Z,5.00
2023-05-01T07:21:21.719Z,4.32
2023-05-01T07:23:48.450Z,3.78
2023-05-01T07:26:15.104Z,4.53
2023-05-01T07:38:26.496Z,4.35
2023-05-01T07:40:53.738Z,4.07
2023-05-01T07:43:20.425Z,3.85
2023-05-01T07:46:00.418Z,3.75
2023-05-01T07:48:28.296Z,3.30
2023-05-01T07:50:55.224Z,3.33
2023-05-01T07:53:24.798Z,3.28
2023-05-01T07:58:19.717Z,3.70
2023-05-01T08:00:46.470Z,3.63
2023-05-01T08:03:13.397Z,3.70
2023-05-01T08:05:42.849Z,5.30
2023-05-01T08:08:09.883Z,2.97
2023-05-01T08:10:36.800Z,3.80
2023-05-01T08:13:03.736Z,3.67
2023-05-01T08:15:30.729Z,4.22
2023-05-01T08:17:57.455Z,3.83
2023-05-01T08:20:27.136Z,3.45
2023-05-01T08:22:56.057Z,3.28
2023-05-01T08:25:22.796Z,4.05
2023-05-01T08:27:49.539Z,3.35
2023-05-01T08:30:16.182Z,3.10
2023-05-01T08:32:42.927Z,2.95
2023-05-01T08:35:09.859Z,3.20
2023-05-01T08:37:36.668Z,3.40
2023-05-01T08:40:08.533Z,3.72
2023-05-01T08:42:36.825Z,3.20
2023-05-01T08:45:04.669Z,3.53
2023-05-01T08:47:31.983Z,3.22
2023-05-01T08:50:00.134Z,2.55
2023-05-01T08:52:27.319Z,3.03
2023-05-01T08:54:56.923Z,2.70
2023-05-01T08:57:25.617Z,2.92
2023-05-01T09:02:43.342Z,3.53
2023-05-01T09:05:10.472Z,2.78
2023-05-01T09:10:10.048Z,2.75
2023-05-01T09:12:37.819Z,3.00
2023-05-01T09:15:04.775Z,2.20
2023-05-01T09:17:32.428Z,2.25
2023-05-01T09:19:59.353Z,2.50
2023-05-01T09:24:56.435Z,1.92
2023-05-01T09:27:23.434Z,2.50
2023-05-01T09:42:06.677Z,2.50
2023-05-01T09:47:08.347Z,2.13
2023-05-01T09:49:50.527Z,2.10
2023-05-01T09:52:17.357Z,1.90
2023-05-01T09:54:44.468Z,2.40
2023-05-01T09:57:11.263Z,2.88
2023-05-01T09:59:40.180Z,2.10
2023-05-01T10:02:07.355Z,2.40
2023-05-01T10:04:34.999Z,2.30
2023-05-01T10:12:05.003Z,2.08
2023-05-01T10:14:35.436Z,2.15
2023-05-01T10:17:07.675Z,2.65
2023-05-01T10:19:34.466Z,2.17
2023-05-01T10:22:02.542Z,2.72
2023-05-01T10:24:29.261Z,3.47
2023-05-01T10:26:56.193Z,3.05
2023-05-01T10:29:23.636Z,2.55
2023-05-01T10:31:50.514Z,3.47
2023-05-01T10:36:46.712Z,2.67
2023-05-01T10:44:31.286Z,3.50
2023-05-01T10:49:25.360Z,2.78
2023-05-01T10:54:33.329Z,3.58
2023-05-01T10:57:03.550Z,2.70
2023-05-01T11:02:23.694Z,3.28
2023-05-01T11:07:18.573Z,3.00
2023-05-01T11:09:45.664Z,2.60
2023-05-01T11:14:54.877Z,3.00
2023-05-01T11:17:41.022Z,3.83
2023-05-01T11:20:08.785Z,3.00
2023-05-01T11:22:38.641Z,3.20
2023-05-01T11:25:17.920Z,2.60
2023-05-01T11:27:52.063Z,3.00
2023-05-01T11:32:46.578Z,2.58
2023-05-01T11:37:44.921Z,2.95
2023-05-01T11:43:14.353Z,2.85
2023-05-01T11:45:41.119Z,2.72
2023-05-01T11:48:14.667Z,3.20
2023-05-01T11:50:41.452Z,2.88
2023-05-01T11:53:11.985Z,2.70
2023-05-01T12:05:42.820Z,3.00
2023-05-01T12:08:12.370Z,2.90
2023-05-01T12:10:40.409Z,2.70
2023-05-01T12:13:07.781Z,2.90
2023-05-01T12:15:35.493Z,3.58
2023-05-01T12:18:02.435Z,3.60
2023-05-01T12:23:05.859Z,2.80
2023-05-01T12:25:34.247Z,3.13
2023-05-01T12:28:02.776Z,3.13
2023-05-01T12:30:29.915Z,3.42
2023-05-01T12:32:57.363Z,3.35
2023-05-01T12:35:29.176Z,3.95
2023-05-01T12:37:56.474Z,4.20
2023-05-01T12:40:23.320Z,2.75
2023-05-01T12:42:57.708Z,3.13
2023-05-01T12:45:25.026Z,2.92
2023-05-01T12:47:52.023Z,3.10
2023-05-01T12:52:44.532Z,4.18
2023-05-01T12:55:12.718Z,2.47
2023-05-01T13:00:19.137Z,3.08
2023-05-01T13:02:45.965Z,2.47
2023-05-01T13:05:12.702Z,2.80
2023-05-01T13:07:42.344Z,2.90
2023-05-01T13:10:09.408Z,3.22
2023-05-01T13:12:44.016Z,3.50
2023-05-01T13:15:19.454Z,3.13
2023-05-01T13:22:38.889Z,2.80
2023-05-01T13:25:14.403Z,3.17
2023-05-01T13:27:41.749Z,3.93
2023-05-01T13:30:08.559Z,4.25
2023-05-01T13:42:26.693Z,4.18
2023-05-01T13:44:55.055Z,5.03
2023-05-01T13:47:26.019Z,3.88
2023-05-01T13:49:52.963Z,8.25
2023-05-01T13:52:20.585Z,4.55
2023-05-01T14:09:45.497Z,3.13
2023-05-01T14:12:18.948Z,3.33
2023-05-01T14:19:39.878Z,3.30
2023-05-01T14:29:41.734Z,3.90
2023-05-01T14:32:08.897Z,2.92
2023-05-01T14:34:53.768Z,3.80
2023-05-01T14:37:20.809Z,3.70
2023-05-01T14:39:47.530Z,2.67
2023-05-01T14:42:14.500Z,3.03
2023-05-01T14:44:42.315Z,2.90
2023-05-01T14:47:09.544Z,3.13
2023-05-01T14:49:36.338Z,2.83
2023-05-01T14:52:07.307Z,3.80
2023-05-01T14:54:36.067Z,3.25
2023-05-01T14:59:31.785Z,2.85
2023-05-01T15:01:58.481Z,2.78
2023-05-01T15:04:25.344Z,2.50
2023-05-01T15:06:52.342Z,2.60
2023-05-01T15:09:19.173Z,2.30
2023-05-01T15:11:46.027Z,2.40
2023-05-01T15:14:12.604Z,2.83
2023-05-01T15:16:39.301Z,2.42
2023-05-01T15:19:06.033Z,2.33
2023-05-01T15:23:58.844Z,2.55
2023-05-01T15:26:25.729Z,2.80
2023-05-01T15:31:19.417Z,2.65
2023-05-01T15:33:46.821Z,3.00
2023-05-01T15:48:24.745Z,5.47
2023-05-01T15:53:54.502Z,2.30
2023-05-01T15:56:22.032Z,2.58
2023-05-01T15:58:48.714Z,3.20
2023-05-01T16:01:15.578Z,3.30
2023-05-01T16:06:10.722Z,3.55
2023-05-01T16:08:38.366Z,3.30
2023-05-01T16:13:30.502Z,2.78
2023-05-01T16:15:57.247Z,3.13
2023-05-01T16:18:24.575Z,2.97
2023-05-01T16:20:54.837Z,2.25
2023-05-01T16:23:22.269Z,2.60
2023-05-01T16:25:48.891Z,2.72
2023-05-01T16:28:17.106Z,2.17
2023-05-01T16:30:44.082Z,2.50
2023-05-01T16:33:18.998Z,3.00
2023-05-01T16:35:49.768Z,2.40
2023-05-01T16:38:16.999Z,2.65
2023-05-01T16:40:43.975Z,2.42
2023-05-01T16:55:22.785Z,2.40
2023-05-01T16:57:51.587Z,2.25
2023-05-01T17:02:45.049Z,2.67
2023-05-01T17:05:11.800Z,2.58
2023-05-01T17:07:38.449Z,3.03
2023-05-01T17:10:05.932Z,2.47
2023-05-01T17:12:32.607Z,2.72
2023-05-01T17:17:25.187Z,3.35
2023-05-01T17:19:52.708Z,2.63
2023-05-01T17:24:45.052Z,2.85
2023-05-01T17:27:12.320Z,3.00
2023-05-01T17:29:39.372Z,3.00
2023-05-01T17:32:06.563Z,3.05
2023-05-01T17:34:33.459Z,3.20
2023-05-01T17:37:00.210Z,3.70
2023-05-01T17:39:28.197Z,3.28
2023-05-01T17:41:55.454Z,3.10
2023-05-01T17:46:48.023Z,2.85
2023-05-01T17:49:15.075Z,3.17
2023-05-01T17:51:42.561Z,3.60
2023-05-01T17:54:09.248Z,2.90
2023-05-01T17:56:35.886Z,3.28
2023-05-01T18:03:54.380Z,2.78
2023-05-01T18:06:21.254Z,3.67
2023-05-01T18:08:50.121Z,3.30
2023-05-01T18:11:16.983Z,3.08
2023-05-01T18:21:04.007Z,3.75
2023-05-01T18:23:30.708Z,2.83
2023-05-01T18:25:57.381Z,3.28
2023-05-01T18:28:24.151Z,3.40
2023-05-01T18:30:50.805Z,4.47
2023-05-01T18:33:18.402Z,3.53
2023-05-01T18:35:45.395Z,4.50
2023-05-01T18:38:12.364Z,4.53
2023-05-01T18:40:39.527Z,6.00
2023-05-01T18:43:06.329Z,5.80
2023-05-01T18:45:33.064Z,7.50
2023-05-01T18:53:08.755Z,3.65
2023-05-01T18:55:35.825Z,4.32
2023-05-01T18:58:02.702Z,6.03
2023-05-01T19:00:30.726Z,7.22
2023-05-01T19:02:57.374Z,7.18
2023-05-01T19:07:51.949Z,6.03
2023-05-01T19:10:18.766Z,3.70
2023-05-01T19:17:37.188Z,3.40
2023-05-01T19:22:30.027Z,3.42
2023-05-01T19:24:56.667Z,4.25
2023-05-01T19:27:25.490Z,4.22
2023-05-01T19:29:53.884Z,3.55
2023-05-01T19:32:20.753Z,3.63
2023-05-01T19:34:47.545Z,4.43
2023-05-01T19:37:14.248Z,3.63
2023-05-01T19:39:40.938Z,4.22
2023-05-01T19:44:33.101Z,3.80
2023-05-01T19:46:59.869Z,3.90
2023-05-01T19:49:26.930Z,3.33
2023-05-01T19:51:54.287Z,3.53
2023-05-01T19:54:22.419Z,4.28
2023-05-01T20:04:10.903Z,3.50
2023-05-01T20:06:39.573Z,3.78
2023-05-01T20:09:07.281Z,3.70
2023-05-01T20:14:01.108Z,3.45
2023-05-01T20:16:28.745Z,4.25
2023-05-01T20:19:01.005Z,3.53
2023-05-01T20:21:28.129Z,3.13
2023-05-01T20:23:57.906Z,3.50
2023-05-01T20:38:39.533Z,3.58
2023-05-01T20:41:06.282Z,3.65
2023-05-01T20:43:33.208Z,4.60
2023-05-01T20:45:59.912Z,3.92
2023-05-01T20:48:27.297Z,3.70
2023-05-01T20:50:54.106Z,3.95
2023-05-01T20:53:20.786Z,3.90
2023-05-01T20:55:52.685Z,3.70
2023-05-01T20:58:22.111Z,3.85
2023-05-01T21:05:41.339Z,4.10
2023-05-01T21:10:34.935Z,3.92
2023-05-01T21:13:01.678Z,4.10
2023-05-01T21:20:26.247Z,4.22
2023-05-01T21:22:52.898Z,3.88
2023-05-01T21:25:21.869Z,3.97
2023-05-01T21:27:48.516Z,3.78
2023-05-01T21:30:16.147Z,3.65
2023-05-01T21:32:42.918Z,4.05
2023-05-01T21:35:10.598Z,4.35
2023-05-01T21:37:38.228Z,4.20
2023-05-01T21:40:08.058Z,4.25
2023-05-01T21:42:36.637Z,4.20
2023-05-01T21:45:07.135Z,4.22
2023-05-01T21:54:55.377Z,4.70
2023-05-01T21:59:48.406Z,4.85
2023-05-01T22:02:15.074Z,5.22
2023-05-01T22:04:41.805Z,4.60
2023-05-01T22:07:08.563Z,5.15
2023-05-01T22:09:35.279Z,4.78
2023-05-01T22:14:36.665Z,5.28
2023-05-01T22:17:13.376Z,6.10
2023-05-01T22:19:40.191Z,5.65
2023-05-01T22:22:06.814Z,6.40
2023-05-01T22:24:35.246Z,8.30
2023-05-01T22:27:02.774Z,7.30
2023-05-01T22:29:29.512Z,6.22
2023-05-01T22:39:13.616Z,5.68
2023-05-01T22:41:40.363Z,6.47
2023-05-01T22:46:33.111Z,5.28
2023-05-01T22:49:03.231Z,6.15
2023-05-01T22:53:55.645Z,5.50
2023-05-01T22:56:22.367Z,5.20
2023-05-01T23:01:14.632Z,5.80
2023-05-01T23:03:41.900Z,5.50
2023-05-01T23:10:59.619Z,5.63
2023-05-01T23:18:30.263Z,5.80
2023-05-01T23:20:56.917Z,6.22
2023-05-01T23:23:26.420Z,5.97
2023-05-01T23:25:54.915Z,5.88
2023-05-01T23:28:22.713Z,6.88
2023-05-01T23:30:52.997Z,7.53
2023-05-01T23:33:21.404Z,6.43
2023-05-01T23:35:48.384Z,5.90
2023-05-01T23:38:15.086Z,6.50
2023-05-01T23:40:41.942Z,6.57
2023-05-01T23:43:08.979Z,6.57
2023-05-01T23:45:35.633Z,6.88
2023-05-01T23:52:55.227Z,7.30
2023-05-01T23:55:21.961Z,7.47
2023-05-01T23:57:48.648Z,7.30
